Time;durP1;ratioP1;P1;durP2;ratioP2;P2;SDS_P1;SDS_P2;PMS_P1;PMS_P2;Temp;Humidity;BMP_temperature;BMP_pressure;BME280_temperature;BME280_humidity;BME280_pressure;Samples;Min_cycle;Max_cycle;Signal;HPM_P1;HPM_P2
2022/04/13 00:02:20;;;;;;;2.00;0.90;;;21.00;54.80;;;;;;5032585;28;20053;-64
2022/04/13 00:04:46;;;;;;;3.38;1.10;;;21.00;54.80;;;;;;5032735;28;20080;-65
2022/04/13 00:07:11;;;;;;;1.50;1.00;;;21.00;54.70;;;;;;5033069;28;20049;-65
2022/04/13 00:09:37;;;;;;;1.90;0.85;;;21.00;54.70;;;;;;5032482;28;20038;-65
2022/04/13 00:12:03;;;;;;;2.20;0.90;;;21.00;54.80;;;;;;5032769;28;20087;-64
2022/04/13 00:14:30;;;;;;;3.15;1.05;;;21.00;54.70;;;;;;5032637;28;20041;-65
2022/04/13 00:16:55;;;;;;;3.40;1.00;;;20.90;54.60;;;;;;5032183;28;20049;-65
2022/04/13 00:19:24;;;;;;;2.20;0.90;;;20.90;54.60;;;;;;5032874;28;20116;-65
2022/04/13 00:21:49;;;;;;;2.75;1.10;;;20.90;54.60;;;;;;5032520;28;20045;-64
2022/04/13 00:24:15;;;;;;;2.17;0.90;;;20.90;54.70;;;;;;5032229;28;20560;-64
2022/04/13 00:26:41;;;;;;;2.35;1.10;;;20.90;54.60;;;;;;5032575;28;20033;-65
2022/04/13 00:29:06;;;;;;;2.05;1.13;;;20.90;54.60;;;;;;5031997;28;20499;-65
2022/04/13 00:31:32;;;;;;;2.38;1.00;;;20.90;54.60;;;;;;5031835;28;20053;-65
2022/04/13 00:33:57;;;;;;;1.98;1.25;;;20.90;54.60;;;;;;5032416;28;20057;-64
2022/04/13 00:36:23;;;;;;;2.60;1.02;;;20.90;54.60;;;;;;5032286;28;20045;-65
2022/04/13 00:38:48;;;;;;;2.35;0.90;;;20.90;54.60;;;;;;5032156;28;20042;-65
2022/04/13 00:41:14;;;;;;;2.30;1.00;;;20.90;54.60;;;;;;5032053;28;20409;-65
2022/04/13 00:43:39;;;;;;;3.70;1.10;;;20.90;54.70;;;;;;5031508;28;20120;-65
2022/04/13 00:46:05;;;;;;;2.67;0.90;;;20.90;54.60;;;;;;5032258;28;20046;-65
2022/04/13 00:48:31;;;;;;;2.30;1.20;;;20.90;54.60;;;;;;5032653;28;20064;-65
2022/04/13 00:50:57;;;;;;;2.35;1.25;;;20.90;54.60;;;;;;5031387;28;20053;-65
2022/04/13 00:53:24;;;;;;;3.10;1.00;;;20.90;54.60;;;;;;5032772;28;20047;-65
2022/04/13 00:55:50;;;;;;;1.92;1.00;;;20.80;54.50;;;;;;5032167;28;20045;-65
2022/04/13 00:58:15;;;;;;;2.40;1.02;;;20.80;54.50;;;;;;5031569;28;20427;-65
2022/04/13 01:00:48;;;;;;;2.55;1.15;;;20.80;54.50;;;;;;5014338;28;20046;-65
2022/04/13 01:03:15;;;;;;;2.78;1.00;;;20.80;54.50;;;;;;5031172;28;20501;-65
2022/04/13 01:05:41;;;;;;;3.03;1.40;;;20.80;54.50;;;;;;5030361;28;20052;-65
2022/04/13 01:08:08;;;;;;;2.72;1.15;;;20.80;54.50;;;;;;5014600;28;20041;-64
2022/04/13 01:10:33;;;;;;;2.67;1.10;;;20.80;54.50;;;;;;5031173;28;20113;-65
2022/04/13 01:12:59;;;;;;;2.65;1.25;;;20.80;54.50;;;;;;5030100;28;20129;-64
2022/04/13 01:15:24;;;;;;;2.20;1.27;;;20.80;54.50;;;;;;5032301;28;20049;-64
2022/04/13 01:17:49;;;;;;;2.03;0.82;;;20.80;54.50;;;;;;5031834;28;20130;-64
2022/04/13 01:20:16;;;;;;;1.92;1.10;;;20.80;54.50;;;;;;5030342;28;20045;-64
2022/04/13 01:22:44;;;;;;;1.60;0.82;;;20.80;54.50;;;;;;5032191;28;20106;-65
2022/04/13 01:25:10;;;;;;;1.63;1.02;;;20.80;54.50;;;;;;5032218;28;20052;-64
2022/04/13 01:27:36;;;;;;;1.83;1.00;;;20.80;54.50;;;;;;5031735;28;20045;-65
2022/04/13 01:30:01;;;;;;;2.25;0.90;;;20.70;54.40;;;;;;5031692;28;20334;-64
2022/04/13 01:32:27;;;;;;;2.35;1.08;;;20.80;54.40;;;;;;5030577;28;20060;-64
2022/04/13 01:34:52;;;;;;;1.75;0.90;;;20.80;54.50;;;;;;5031114;28;20132;-64
2022/04/13 01:37:18;;;;;;;1.85;1.10;;;20.70;54.40;;;;;;5032252;28;20052;-65
2022/04/13 01:39:44;;;;;;;2.30;1.10;;;20.80;54.40;;;;;;5030826;28;20059;-64
2022/04/13 01:42:09;;;;;;;1.92;1.00;;;20.70;54.40;;;;;;5031972;28;20075;-64
2022/04/13 01:44:35;;;;;;;1.98;1.20;;;20.70;54.40;;;;;;5031589;28;20037;-64
2022/04/13 01:47:00;;;;;;;1.45;0.88;;;20.70;54.40;;;;;;5030847;28;20461;-64
2022/04/13 01:49:26;;;;;;;1.75;0.90;;;20.70;54.40;;;;;;5032058;28;20071;-64
2022/04/13 01:51:51;;;;;;;2.17;1.10;;;20.70;54.30;;;;;;5032697;28;20045;-64
2022/04/13 01:54:17;;;;;;;2.20;1.05;;;20.70;54.30;;;;;;5034818;28;20080;-65
2022/04/13 01:56:42;;;;;;;2.08;1.20;;;20.70;54.40;;;;;;5035184;28;20041;-64
2022/04/13 01:59:08;;;;;;;1.75;1.00;;;20.70;54.40;;;;;;5035328;28;20378;-64
2022/04/13 02:01:35;;;;;;;1.50;1.00;;;20.70;54.40;;;;;;5034226;28;20053;-64
2022/04/13 02:04:01;;;;;;;1.92;1.00;;;20.70;54.40;;;;;;5033872;28;20056;-64
2022/04/13 02:06:26;;;;;;;2.30;1.10;;;20.70;55.00;;;;;;5033813;28;20049;-64
2022/04/13 02:08:52;;;;;;;2.22;1.17;;;20.70;54.30;;;;;;5034312;28;20347;-64
2022/04/13 02:11:18;;;;;;;1.52;0.90;;;20.70;54.30;;;;;;5035273;28;20073;-64
2022/04/13 02:13:43;;;;;;;1.20;0.90;;;20.70;54.40;;;;;;5034930;28;20041;-64
2022/04/13 02:16:09;;;;;;;2.75;1.30;;;20.70;54.30;;;;;;5034328;28;20051;-64
2022/04/13 02:18:34;;;;;;;3.25;1.20;;;20.70;54.30;;;;;;5035058;28;20443;-64
2022/04/13 02:21:00;;;;;;;2.03;0.90;;;20.70;54.30;;;;;;5034793;28;20168;-64
2022/04/13 02:23:25;;;;;;;2.67;0.88;;;20.70;54.30;;;;;;5034463;28;20084;-64
2022/04/13 02:25:51;;;;;;;2.60;1.00;;;20.70;54.30;;;;;;5034538;28;20194;-65
2022/04/13 02:28:16;;;;;;;2.10;1.10;;;20.60;54.20;;;;;;5034835;28;20045;-65
2022/04/13 02:30:42;;;;;;;2.63;1.38;;;20.60;54.20;;;;;;5033242;28;20080;-64
2022/04/13 02:33:07;;;;;;;2.53;1.10;;;20.60;54.20;;;;;;5034527;28;20433;-65
2022/04/13 02:35:33;;;;;;;1.77;0.90;;;20.60;54.30;;;;;;5034857;28;20041;-64
2022/04/13 02:37:58;;;;;;;2.25;1.15;;;20.60;54.30;;;;;;5033669;28;20103;-65
2022/04/13 02:40:24;;;;;;;2.08;1.23;;;20.60;54.30;;;;;;5034816;28;20049;-64
2022/04/13 02:42:50;;;;;;;2.47;1.17;;;20.60;54.20;;;;;;5034161;28;20351;-64
2022/04/13 02:45:15;;;;;;;2.10;0.90;;;20.60;54.20;;;;;;5033635;28;20400;-64
2022/04/13 02:47:41;;;;;;;2.85;1.00;;;20.60;54.20;;;;;;5034260;28;20050;-64
2022/04/13 02:50:07;;;;;;;2.10;1.25;;;20.60;54.20;;;;;;5033885;28;20472;-65
2022/04/13 02:52:33;;;;;;;2.05;0.98;;;20.60;54.30;;;;;;5034659;28;20049;-64
2022/04/13 02:54:58;;;;;;;2.53;1.23;;;20.60;54.30;;;;;;5033994;28;20467;-64
2022/04/13 02:57:24;;;;;;;1.92;1.10;;;20.60;54.30;;;;;;5033584;28;20047;-64
2022/04/13 02:59:49;;;;;;;1.85;0.98;;;20.60;54.30;;;;;;5033890;28;20048;-64
2022/04/13 03:02:18;;;;;;;2.30;1.02;;;20.60;54.30;;;;;;5034252;28;20045;-65
2022/04/13 03:04:46;;;;;;;2.03;0.90;;;20.60;54.20;;;;;;5032685;28;20051;-65
2022/04/13 03:07:12;;;;;;;1.55;1.02;;;20.60;54.20;;;;;;5034224;28;20077;-65
2022/04/13 03:09:38;;;;;;;2.38;1.20;;;20.60;54.20;;;;;;5034041;28;20072;-65
2022/04/13 03:12:05;;;;;;;2.85;1.27;;;20.60;54.30;;;;;;5033326;28;20056;-64
2022/04/13 03:14:30;;;;;;;2.60;1.10;;;20.50;54.20;;;;;;5033992;28;20481;-65
2022/04/13 03:16:55;;;;;;;2.25;1.00;;;20.50;54.20;;;;;;5033789;28;20130;-64
2022/04/13 03:19:21;;;;;;;2.50;1.30;;;20.50;54.20;;;;;;5033309;28;20046;-65
2022/04/13 03:21:51;;;;;;;1.90;1.17;;;20.50;54.20;;;;;;5033670;28;20049;-65
2022/04/13 03:24:17;;;;;;;1.98;1.02;;;20.50;54.20;;;;;;5033777;28;20049;-64
2022/04/13 03:26:43;;;;;;;2.90;1.10;;;20.50;54.20;;;;;;5032992;28;20053;-64
2022/04/13 03:29:09;;;;;;;3.25;1.20;;;20.50;54.20;;;;;;5032434;28;20136;-64
2022/04/13 03:31:35;;;;;;;2.85;1.15;;;20.50;54.20;;;;;;5034606;28;20415;-65
2022/04/13 03:34:00;;;;;;;1.67;0.98;;;20.50;54.20;;;;;;5032624;28;20041;-65
2022/04/13 03:36:26;;;;;;;2.22;1.13;;;20.50;54.30;;;;;;5033404;28;20057;-64
2022/04/13 03:38:51;;;;;;;1.35;0.82;;;20.50;54.30;;;;;;5033464;28;20505;-64
2022/04/13 03:41:17;;;;;;;2.55;1.23;;;20.50;54.30;;;;;;5032700;28;20045;-64
2022/04/13 03:43:42;;;;;;;2.30;1.10;;;20.50;54.30;;;;;;5033315;28;20053;-64
2022/04/13 03:46:08;;;;;;;2.33;1.17;;;20.50;54.30;;;;;;5033482;28;20468;-65
2022/04/13 03:48:34;;;;;;;2.25;0.88;;;20.50;54.30;;;;;;5032440;28;20088;-65
2022/04/13 03:51:00;;;;;;;2.30;0.95;;;20.50;54.30;;;;;;5032970;28;20057;-65
2022/04/13 03:53:26;;;;;;;2.45;1.20;;;20.50;54.30;;;;;;5032592;28;20041;-65
2022/04/13 03:55:51;;;;;;;2.58;1.13;;;20.40;54.30;;;;;;5032985;28;20057;-64
2022/04/13 03:58:17;;;;;;;2.17;1.02;;;20.50;54.30;;;;;;5033327;28;20045;-65
2022/04/13 04:00:42;;;;;;;2.25;1.13;;;20.40;54.30;;;;;;5031761;28;20107;-65
2022/04/13 04:03:08;;;;;;;2.10;1.20;;;20.40;54.30;;;;;;5032672;28;20045;-64
2022/04/13 04:05:33;;;;;;;2.05;1.30;;;20.40;54.30;;;;;;5032506;28;20046;-65
2022/04/13 04:07:59;;;;;;;2.67;1.10;;;20.40;54.30;;;;;;5031386;28;20037;-65
2022/04/13 04:10:24;;;;;;;2.38;1.38;;;20.40;54.30;;;;;;5033150;28;20074;-65
2022/04/13 04:12:50;;;;;;;2.63;1.30;;;20.40;54.30;;;;;;5032536;28;20404;-65
2022/04/13 04:15:16;;;;;;;2.47;1.10;;;20.40;54.30;;;;;;5031061;28;20524;-64
2022/04/13 04:17:41;;;;;;;2.97;1.15;;;20.40;54.30;;;;;;5032723;28;20053;-64
2022/04/13 04:20:07;;;;;;;2.55;1.40;;;20.40;54.30;;;;;;5032743;28;20114;-64
2022/04/13 04:22:34;;;;;;;1.92;1.10;;;20.40;54.30;;;;;;5032153;28;20126;-65
2022/04/13 04:25:03;;;;;;;1.75;1.20;;;20.40;54.30;;;;;;5032656;28;20057;-64
2022/04/13 04:27:29;;;;;;;1.88;1.20;;;20.40;54.30;;;;;;5032854;28;20128;-65
2022/04/13 04:29:54;;;;;;;2.53;1.30;;;20.40;54.30;;;;;;5031556;28;20137;-64
2022/04/13 04:32:20;;;;;;;1.83;1.15;;;20.40;54.30;;;;;;5033121;28;20120;-65
2022/04/13 04:34:45;;;;;;;2.25;1.20;;;20.40;54.30;;;;;;5032562;28;20523;-64
2022/04/13 04:37:11;;;;;;;2.67;1.10;;;20.40;54.30;;;;;;5032212;28;20053;-64
2022/04/13 04:39:36;;;;;;;2.72;1.45;;;20.40;54.30;;;;;;5032537;28;20038;-64
2022/04/13 04:42:04;;;;;;;2.60;1.30;;;20.40;54.30;;;;;;5032345;28;20049;-64
2022/04/13 04:44:29;;;;;;;2.30;1.13;;;20.40;54.40;;;;;;5031511;28;20374;-64
2022/04/13 04:46:55;;;;;;;2.13;1.20;;;20.40;54.30;;;;;;5032131;28;20567;-64
2022/04/13 04:49:20;;;;;;;2.03;1.30;;;20.40;54.40;;;;;;5032426;28;20077;-64
2022/04/13 04:51:46;;;;;;;2.08;1.33;;;20.50;54.40;;;;;;5031525;28;20064;-64
2022/04/13 04:54:11;;;;;;;3.20;1.20;;;20.50;54.50;;;;;;5032638;28;20099;-64
2022/04/13 04:56:37;;;;;;;2.22;1.38;;;20.50;54.40;;;;;;5032040;28;20049;-64
2022/04/13 04:59:02;;;;;;;2.65;1.23;;;20.50;54.50;;;;;;5031938;28;20049;-64
2022/04/13 05:01:28;;;;;;;2.40;1.13;;;20.50;54.50;;;;;;5032447;28;20049;-64
2022/04/13 05:03:53;;;;;;;2.03;1.10;;;20.50;54.50;;;;;;5031563;28;20044;-64
2022/04/13 05:06:21;;;;;;;2.65;1.50;;;20.50;54.50;;;;;;5032162;28;20397;-64
2022/04/13 05:08:50;;;;;;;3.70;1.33;;;20.50;54.50;;;;;;5031907;28;20073;-65
2022/04/13 05:11:15;;;;;;;2.20;1.20;;;20.50;54.50;;;;;;5030161;28;20128;-64
2022/04/13 05:13:41;;;;;;;3.00;1.10;;;20.50;54.60;;;;;;5032209;28;20124;-64
2022/04/13 05:16:06;;;;;;;2.17;1.17;;;20.50;54.60;;;;;;5032329;28;20049;-64
2022/04/13 05:18:32;;;;;;;2.58;1.23;;;20.50;54.60;;;;;;5031308;28;20049;-64
2022/04/13 05:20:58;;;;;;;2.10;1.50;;;20.60;54.60;;;;;;5031631;28;20046;-64
2022/04/13 05:23:23;;;;;;;2.90;1.40;;;20.60;54.60;;;;;;5032377;28;20388;-64
2022/04/13 05:25:49;;;;;;;3.13;1.42;;;20.60;54.60;;;;;;5031161;28;20129;-64
2022/04/13 05:28:15;;;;;;;2.97;1.20;;;20.60;54.60;;;;;;5035809;28;20052;-64
2022/04/13 05:30:40;;;;;;;3.35;1.63;;;20.60;54.60;;;;;;5035373;28;20058;-64
2022/04/13 05:33:06;;;;;;;2.53;1.25;;;20.60;54.60;;;;;;5035413;28;20041;-64
2022/04/13 05:35:32;;;;;;;2.42;1.20;;;20.60;54.60;;;;;;5035871;28;20088;-64
2022/04/13 05:37:58;;;;;;;2.15;1.20;;;20.60;54.50;;;;;;5035792;28;20041;-65
2022/04/13 05:40:24;;;;;;;2.05;1.40;;;20.60;54.60;;;;;;5035402;28;20109;-64
2022/04/13 05:42:50;;;;;;;3.15;1.58;;;20.70;54.60;;;;;;5035612;28;20532;-64
2022/04/13 05:45:17;;;;;;;2.28;1.00;;;20.70;54.60;;;;;;5035762;28;20052;-64
2022/04/13 05:47:43;;;;;;;2.65;1.40;;;20.70;54.60;;;;;;5034805;28;20053;-64
2022/04/13 05:50:09;;;;;;;2.03;1.35;;;20.70;54.60;;;;;;5035467;28;20096;-64
2022/04/13 05:52:35;;;;;;;3.20;1.30;;;20.70;54.50;;;;;;5035715;28;20049;-64
2022/04/13 05:55:01;;;;;;;1.52;1.13;;;20.70;54.50;;;;;;5034167;28;20469;-64
2022/04/13 05:57:26;;;;;;;1.80;1.10;;;20.70;54.50;;;;;;5035171;28;20046;-64
2022/04/13 05:59:53;;;;;;;2.63;1.48;;;20.80;54.60;;;;;;5035280;28;20041;-64
2022/04/13 06:02:19;;;;;;;2.65;1.15;;;20.80;54.60;;;;;;5034807;28;20049;-64
2022/04/13 06:04:44;;;;;;;2.78;1.30;;;20.80;54.60;;;;;;5035185;28;20069;-64
2022/04/13 06:07:10;;;;;;;2.35;1.20;;;20.80;54.60;;;;;;5034443;28;20041;-65
2022/04/13 06:09:35;;;;;;;3.42;1.30;;;20.80;54.60;;;;;;5035208;28;20382;-64
2022/04/13 06:12:01;;;;;;;2.35;1.30;;;20.80;54.70;;;;;;5035065;28;20041;-64
2022/04/13 06:14:26;;;;;;;2.28;1.50;;;20.90;54.70;;;;;;5034570;28;20392;-67
2022/04/13 06:16:52;;;;;;;2.33;1.30;;;20.80;54.60;;;;;;5034880;28;20519;-66
2022/04/13 06:19:17;;;;;;;2.25;1.23;;;20.90;54.60;;;;;;5035137;28;20049;-65
2022/04/13 06:21:43;;;;;;;2.72;1.20;;;20.90;54.60;;;;;;5034055;28;20042;-65
2022/04/13 06:24:08;;;;;;;3.08;1.20;;;20.90;54.60;;;;;;5035068;28;20045;-65
2022/04/13 06:26:34;;;;;;;4.05;1.63;;;20.90;54.60;;;;;;5034797;28;20132;-65
2022/04/13 06:29:00;;;;;;;2.65;1.48;;;20.90;54.60;;;;;;5033916;28;20124;-65
2022/04/13 06:31:25;;;;;;;3.67;1.30;;;21.00;54.70;;;;;;5034410;28;20145;-64
2022/04/13 06:33:52;;;;;;;5.50;1.50;;;21.00;54.80;;;;;;5034547;28;20038;-65
2022/04/13 06:36:18;;;;;;;2.40;1.30;;;21.00;54.90;;;;;;5033946;28;20050;-65
2022/04/13 06:38:44;;;;;;;2.33;1.23;;;21.00;54.90;;;;;;5033199;28;20049;-65
2022/04/13 06:41:13;;;;;;;3.90;1.48;;;21.00;55.00;;;;;;5034719;28;20044;-65
2022/04/13 06:43:38;;;;;;;2.88;1.25;;;21.00;55.10;;;;;;5024892;28;20065;-65
2022/04/13 06:46:04;;;;;;;4.15;1.60;;;21.10;55.30;;;;;;5015854;28;20389;-66
2022/04/13 06:48:29;;;;;;;2.03;1.35;;;21.10;55.50;;;;;;5014627;28;20133;-66
2022/04/13 06:50:55;;;;;;;3.30;1.52;;;21.10;55.60;;;;;;5013235;28;20041;-70
2022/04/13 06:53:21;;;;;;;2.13;1.23;;;21.10;55.80;;;;;;5014691;28;20042;-68
2022/04/13 06:55:47;;;;;;;6.05;1.50;;;21.10;55.80;;;;;;5014111;28;20053;-72
2022/04/13 06:58:16;;;;;;;4.22;1.60;;;21.20;55.90;;;;;;5014070;28;20065;-65
2022/04/13 07:00:42;;;;;;;3.78;1.45;;;21.20;56.00;;;;;;5014298;28;20046;-64
2022/04/13 07:03:08;;;;;;;3.38;1.58;;;21.20;56.10;;;;;;5014334;28;20061;-66
2022/04/13 07:05:34;;;;;;;4.00;1.77;;;21.30;56.20;;;;;;5013773;28;20042;-69
2022/04/13 07:08:00;;;;;;;4.60;1.75;;;21.30;56.30;;;;;;5013923;28;20052;-66
2022/04/13 07:10:27;;;;;;;2.58;1.60;;;21.30;56.30;;;;;;5013801;28;20168;-66
2022/04/13 07:12:52;;;;;;;2.92;1.50;;;21.30;56.30;;;;;;5014083;28;20060;-67
2022/04/13 07:15:18;;;;;;;6.68;1.90;;;21.30;56.20;;;;;;5014020;28;20050;-66
2022/04/13 07:17:44;;;;;;;3.70;1.45;;;21.40;56.30;;;;;;5013313;28;20044;-66
2022/04/13 07:20:11;;;;;;;3.70;1.20;;;21.40;56.30;;;;;;5013974;28;20425;-66
2022/04/13 07:22:50;;;;;;;3.63;1.30;;;21.40;56.30;;;;;;5013854;28;20068;-68
2022/04/13 07:25:17;;;;;;;2.67;1.40;;;21.40;56.30;;;;;;5013351;28;20053;-68
2022/04/13 07:27:42;;;;;;;2.70;1.40;;;21.40;56.30;;;;;;5013838;28;20041;-64
2022/04/13 07:30:08;;;;;;;3.95;1.33;;;21.40;56.40;;;;;;5017451;28;20405;-66
2022/04/13 07:32:34;;;;;;;4.43;2.00;;;21.50;56.60;;;;;;5032807;28;20053;-67
2022/04/13 07:34:59;;;;;;;4.28;1.50;;;21.50;56.70;;;;;;5033381;28;20069;-66
2022/04/13 07:37:28;;;;;;;3.88;1.48;;;21.50;56.70;;;;;;5033728;28;20116;-66
2022/04/13 07:39:53;;;;;;;4.85;1.65;;;21.50;56.80;;;;;;5032463;28;20417;-67
2022/04/13 07:42:22;;;;;;;4.82;1.80;;;21.50;56.80;;;;;;5033402;28;20485;-67
2022/04/13 07:44:48;;;;;;;4.97;1.90;;;21.50;56.60;;;;;;5033134;28;20132;-67
2022/04/13 07:47:14;;;;;;;3.45;1.65;;;21.50;56.50;;;;;;5032943;28;20136;-68
2022/04/13 07:49:41;;;;;;;4.35;1.60;;;21.60;56.50;;;;;;5032739;28;20037;-67
2022/04/13 07:52:07;;;;;;;4.07;1.60;;;21.50;56.40;;;;;;5033313;28;20045;-67
2022/04/13 07:54:33;;;;;;;3.40;1.60;;;21.60;56.50;;;;;;5032594;28;20073;-68
2022/04/13 07:56:58;;;;;;;4.35;1.63;;;21.60;56.40;;;;;;5032838;28;20096;-67
2022/04/13 07:59:24;;;;;;;3.83;1.60;;;21.60;56.40;;;;;;5033416;28;20048;-67
2022/04/13 08:01:49;;;;;;;3.80;1.67;;;21.60;56.40;;;;;;5031902;28;20077;-67
2022/04/13 08:04:15;;;;;;;5.35;1.73;;;21.60;56.40;;;;;;5033200;28;20511;-67
2022/04/13 08:06:40;;;;;;;4.60;1.58;;;21.60;56.40;;;;;;5032062;28;20548;-68
2022/04/13 08:09:06;;;;;;;3.72;1.60;;;21.60;56.40;;;;;;5033167;28;20045;-67
2022/04/13 08:11:31;;;;;;;4.53;1.55;;;21.60;56.50;;;;;;5033072;28;20038;-66
2022/04/13 08:13:57;;;;;;;4.70;1.63;;;21.60;56.50;;;;;;5031825;28;20041;-66
2022/04/13 08:16:23;;;;;;;4.70;1.50;;;21.60;56.50;;;;;;5031367;28;20056;-67
2022/04/13 08:18:48;;;;;;;5.75;1.58;;;21.60;56.60;;;;;;5032371;28;20132;-67
2022/04/13 08:21:14;;;;;;;5.10;1.58;;;21.70;56.60;;;;;;5031962;28;20477;-66
2022/04/13 08:23:39;;;;;;;3.70;1.58;;;21.60;56.50;;;;;;5032484;28;20041;-67
2022/04/13 08:26:04;;;;;;;4.25;1.60;;;21.70;56.50;;;;;;5031225;28;20117;-67
2022/04/13 08:28:30;;;;;;;4.68;1.50;;;21.70;56.50;;;;;;5031823;28;20489;-67
2022/04/13 08:30:56;;;;;;;4.60;1.63;;;21.70;56.50;;;;;;5032208;28;20053;-67
2022/04/13 08:33:21;;;;;;;2.72;1.60;;;21.70;56.40;;;;;;5032137;28;20041;-67
2022/04/13 08:35:47;;;;;;;3.47;1.23;;;21.70;56.40;;;;;;5030246;28;20041;-67
2022/04/13 08:38:12;;;;;;;5.00;1.40;;;21.70;56.40;;;;;;5032587;28;20045;-67
2022/04/13 08:40:41;;;;;;;5.43;1.60;;;21.70;56.40;;;;;;5032370;28;20446;-66
2022/04/13 08:43:10;;;;;;;3.95;1.45;;;21.70;56.40;;;;;;5015157;28;20120;-66
2022/04/13 08:45:53;;;;;;;3.20;1.20;;;21.70;56.40;;;;;;5032378;28;20048;-67
2022/04/13 08:48:22;;;;;;;2.42;1.35;;;21.70;56.40;;;;;;5032804;28;20473;-66
2022/04/13 08:50:47;;;;;;;3.78;1.55;;;21.70;56.40;;;;;;5030073;28;20041;-66
2022/04/13 08:53:13;;;;;;;5.22;1.83;;;21.70;56.40;;;;;;5031902;28;20512;-66
2022/04/13 08:55:41;;;;;;;5.07;1.40;;;21.70;56.40;;;;;;5030571;28;20041;-66
2022/04/13 08:58:14;;;;;;;4.80;1.60;;;21.70;56.40;;;;;;5030431;28;20405;-66
2022/04/13 09:00:42;;;;;;;4.80;1.50;;;21.70;56.40;;;;;;5030590;28;20089;-66
2022/04/13 09:03:50;;;;;;;2.50;1.20;;;21.70;56.40;;;;;;5035310;28;20109;-66
2022/04/13 09:06:15;;;;;;;3.33;1.40;;;21.70;56.40;;;;;;5031741;28;20511;-66
2022/04/13 09:08:54;;;;;;;3.30;1.48;;;21.70;56.40;;;;;;5034631;28;20128;-66
2022/04/13 09:11:23;;;;;;;3.22;1.40;;;21.70;56.40;;;;;;5035865;28;20532;-66
2022/04/13 09:13:51;;;;;;;3.40;1.40;;;21.70;56.40;;;;;;5036064;28;20489;-66
2022/04/13 09:16:17;;;;;;;6.53;1.85;;;21.70;56.40;;;;;;5036048;28;20041;-66
2022/04/13 09:18:43;;;;;;;2.53;1.20;;;21.70;56.40;;;;;;5035153;28;20040;-66
2022/04/13 09:21:10;;;;;;;2.65;1.20;;;21.70;56.50;;;;;;5036165;28;20038;-66
2022/04/13 09:23:36;;;;;;;2.92;1.48;;;21.70;56.40;;;;;;5034785;28;20800;-66
2022/04/13 09:26:02;;;;;;;3.70;1.30;;;21.70;57.20;;;;;;5016034;28;20076;-66
2022/04/13 09:28:27;;;;;;;4.80;1.40;;;21.70;56.50;;;;;;5016108;28;20038;-66
2022/04/13 09:30:54;;;;;;;3.47;1.40;;;21.70;56.50;;;;;;5015620;28;20062;-66
2022/04/13 09:33:19;;;;;;;2.33;1.20;;;21.70;56.60;;;;;;5015482;28;20466;-66
2022/04/13 09:35:45;;;;;;;2.33;1.38;;;21.70;56.60;;;;;;5014312;28;20125;-66
2022/04/13 09:38:10;;;;;;;3.13;1.52;;;21.70;56.50;;;;;;5015033;28;20116;-66
2022/04/13 09:40:37;;;;;;;2.47;1.30;;;21.70;56.50;;;;;;5015750;28;20073;-66
2022/04/13 09:43:13;;;;;;;2.65;1.10;;;21.70;56.60;;;;;;5015928;28;20041;-66
2022/04/13 09:45:47;;;;;;;3.78;1.27;;;21.70;56.60;;;;;;5014757;28;20042;-66
2022/04/13 09:48:17;;;;;;;2.33;1.15;;;21.70;56.60;;;;;;5015916;28;20042;-66
2022/04/13 09:50:47;;;;;;;4.20;1.45;;;21.70;56.60;;;;;;5015675;28;20089;-66
2022/04/13 09:53:13;;;;;;;4.07;1.40;;;21.70;56.60;;;;;;5020623;28;20076;-66
2022/04/13 09:55:49;;;;;;;2.63;1.25;;;21.70;56.60;;;;;;5035337;28;20120;-66
2022/04/13 09:58:17;;;;;;;3.28;1.30;;;21.70;56.50;;;;;;5034295;28;20045;-66
2022/04/13 10:00:44;;;;;;;2.43;1.10;;;21.70;56.50;;;;;;5030673;28;20132;-66
2022/04/13 10:03:13;;;;;;;4.05;1.20;;;21.70;56.50;;;;;;5020552;28;20045;-66
2022/04/13 10:05:47;;;;;;;2.70;1.20;;;21.70;56.40;;;;;;5034717;28;20041;-66
2022/04/13 10:08:14;;;;;;;2.28;1.10;;;21.70;56.50;;;;;;5034497;28;20485;-66
2022/04/13 10:10:41;;;;;;;3.58;1.40;;;21.70;56.50;;;;;;5034424;28;20045;-66
2022/04/13 10:13:06;;;;;;;2.03;1.13;;;21.70;56.50;;;;;;5034909;28;20125;-66
2022/04/13 10:15:32;;;;;;;3.90;1.30;;;21.80;56.60;;;;;;5034371;28;20133;-66
2022/04/13 10:17:58;;;;;;;3.03;1.20;;;21.80;56.60;;;;;;5033798;28;20394;-66
2022/04/13 10:20:28;;;;;;;2.00;1.00;;;21.80;56.60;;;;;;5034043;28;20449;-66
2022/04/13 10:23:01;;;;;;;1.85;1.00;;;21.80;56.70;;;;;;5033600;28;20055;-66
2022/04/13 10:25:29;;;;;;;2.15;1.08;;;21.80;56.70;;;;;;5034919;28;20041;-64
2022/04/13 10:27:56;;;;;;;2.55;1.08;;;21.80;56.70;;;;;;5033687;28;20042;-65
2022/04/13 10:30:29;;;;;;;2.22;1.20;;;21.80;56.60;;;;;;5034706;28;20064;-65
2022/04/13 10:33:09;;;;;;;3.35;1.30;;;21.80;56.60;;;;;;5028978;28;20053;-64
2022/04/13 10:35:42;;;;;;;4.50;1.50;;;21.80;57.00;;;;;;5026102;28;20072;-64
2022/04/13 10:38:08;;;;;;;5.93;2.10;;;21.80;57.00;;;;;;5014934;28;20138;-63
2022/04/13 10:40:35;;;;;;;5.85;2.03;;;21.80;57.00;;;;;;5014472;28;20471;-64
2022/04/13 10:43:02;;;;;;;4.53;1.53;;;21.80;57.00;;;;;;5013800;28;20044;-63
2022/04/13 10:45:29;;;;;;;3.50;1.60;;;21.80;57.80;;;;;;5014404;28;20046;-64
2022/04/13 10:47:57;;;;;;;2.88;1.38;;;21.80;57.20;;;;;;5013015;28;20489;-64
2022/04/13 10:50:30;;;;;;;3.28;1.40;;;21.80;57.10;;;;;;5013014;28;20060;-63
2022/04/13 10:53:14;;;;;;;5.47;1.50;;;21.80;57.00;;;;;;5012963;28;20428;-64
2022/04/13 10:55:40;;;;;;;6.15;1.30;;;21.80;57.00;;;;;;5013750;28;20050;-64
2022/04/13 10:58:13;;;;;;;2.83;1.40;;;21.80;57.00;;;;;;5014197;28;20082;-64
2022/04/13 11:00:40;;;;;;;3.70;1.30;;;21.80;57.70;;;;;;5014179;28;20115;-63
2022/04/13 11:03:05;;;;;;;3.25;1.02;;;21.80;57.00;;;;;;5012865;28;20121;-63
2022/04/13 11:05:31;;;;;;;3.15;1.02;;;21.80;57.00;;;;;;5014532;28;20084;-64
2022/04/13 11:08:25;;;;;;;4.20;1.30;;;21.80;57.00;;;;;;5014380;28;20456;-64
2022/04/13 11:10:51;;;;;;;5.72;1.40;;;21.80;56.90;;;;;;5013885;28;20072;-64
2022/04/13 11:13:16;;;;;;;3.03;1.25;;;21.80;57.00;;;;;;5027375;28;20045;-64
2022/04/13 11:15:46;;;;;;;4.55;1.17;;;21.80;57.10;;;;;;5032518;28;20045;-65
2022/04/13 11:18:18;;;;;;;3.33;1.40;;;21.80;57.30;;;;;;5033517;28;20049;-66
2022/04/13 11:20:59;;;;;;;5.20;1.60;;;21.80;57.30;;;;;;5033904;28;20081;-65
2022/04/13 11:23:44;;;;;;;4.47;1.70;;;21.80;57.20;;;;;;5033998;28;20075;-65
2022/04/13 11:26:10;;;;;;;5.68;1.88;;;21.80;57.30;;;;;;5033406;28;20072;-65
2022/04/13 11:28:35;;;;;;;2.58;1.65;;;21.80;57.30;;;;;;5034006;28;20574;-65
2022/04/13 11:31:03;;;;;;;2.97;1.50;;;21.80;57.40;;;;;;5031058;28;20119;-66
2022/04/13 11:33:48;;;;;;;5.63;1.70;;;21.80;57.30;;;;;;5033725;28;20099;-64
2022/04/13 11:36:14;;;;;;;4.43;1.80;;;21.80;57.50;;;;;;5031723;28;20045;-64
2022/04/13 11:38:58;;;;;;;3.70;1.30;;;21.80;57.40;;;;;;5031320;28;20405;-64
2022/04/13 11:41:23;;;;;;;3.33;1.27;;;21.80;57.40;;;;;;5032269;28;20044;-64
2022/04/13 11:43:49;;;;;;;3.25;1.15;;;21.80;57.50;;;;;;5033482;28;20049;-64
2022/04/13 11:46:35;;;;;;;3.70;1.30;;;21.80;57.50;;;;;;5031482;28;20037;-64
2022/04/13 11:49:01;;;;;;;3.17;1.42;;;21.80;57.40;;;;;;5033426;28;20049;-64
2022/04/13 11:51:29;;;;;;;3.42;1.45;;;21.80;57.40;;;;;;5033100;28;20037;-64
2022/04/13 11:53:55;;;;;;;;;;;21.80;57.50;;;;;;5032765;28;20041;-64
2022/04/13 11:56:31;;;;;;;3.67;1.23;;;21.70;57.30;;;;;;5033464;28;20395;-64
2022/04/13 11:58:56;;;;;;;3.33;1.08;;;21.70;57.50;;;;;;5032482;28;20041;-63
2022/04/13 12:01:23;;;;;;;3.58;1.33;;;21.70;57.40;;;;;;5033224;28;20362;-63
2022/04/13 12:03:48;;;;;;;3.50;1.15;;;21.70;57.50;;;;;;5033044;28;20049;-63
2022/04/13 12:06:16;;;;;;;3.58;1.10;;;21.70;57.50;;;;;;5031454;28;20041;-62
2022/04/13 12:08:57;;;;;;;4.72;1.25;;;21.70;57.60;;;;;;5020417;28;20045;-63
2022/04/13 12:11:43;;;;;;;3.42;1.30;;;21.70;57.60;;;;;;5021919;28;20065;-62
2022/04/13 12:14:10;;;;;;;3.75;1.45;;;21.70;57.70;;;;;;5011421;28;20042;-63
2022/04/13 12:16:38;;;;;;;5.88;1.38;;;21.70;57.70;;;;;;5013297;28;20049;-63
2022/04/13 12:19:10;;;;;;;4.10;1.30;;;21.70;57.70;;;;;;5013464;28;20046;-63
2022/04/13 12:21:40;;;;;;;3.10;1.20;;;21.70;57.70;;;;;;5012416;28;20123;-63
2022/04/13 12:24:07;;;;;;;3.75;1.55;;;21.70;57.70;;;;;;5013301;28;20041;-63
2022/04/13 12:26:37;;;;;;;3.10;1.55;;;21.70;57.70;;;;;;5012882;28;20049;-63
2022/04/13 12:29:16;;;;;;;4.00;0.95;;;21.70;57.70;;;;;;5011962;28;20063;-64
2022/04/13 12:31:52;;;;;;;3.10;1.23;;;21.70;57.80;;;;;;5012718;28;20485;-63
2022/04/13 12:34:22;;;;;;;4.65;1.10;;;21.70;57.90;;;;;;5012275;28;20050;-64
2022/04/13 12:37:03;;;;;;;3.00;0.95;;;21.70;57.90;;;;;;5012059;28;20046;-64
2022/04/13 12:39:30;;;;;;;4.97;1.13;;;21.70;57.90;;;;;;5013131;28;20045;-64
2022/04/13 12:41:55;;;;;;;3.03;1.35;;;21.70;57.90;;;;;;5011782;28;20046;-63
2022/04/13 12:44:21;;;;;;;4.80;1.20;;;21.70;58.10;;;;;;5011807;28;20057;-63
2022/04/13 12:46:46;;;;;;;2.83;1.13;;;21.70;58.00;;;;;;5010687;28;20041;-63
2022/04/13 12:49:19;;;;;;;4.43;1.25;;;21.70;58.00;;;;;;5011104;28;20099;-63